createdAt,value
2022-10-01T00:15:31.257Z,13.03
2022-10-01T00:55:31.251Z,12.91
2022-10-01T01:55:31.227Z,11.17
2022-10-01T02:15:31.256Z,10.94
2022-10-01T02:35:31.229Z,10.82
2022-10-01T02:55:31.256Z,10.72
2022-10-01T03:15:31.220Z,10.6
2022-10-01T03:35:31.221Z,10.6
2022-10-01T03:55:31.237Z,10.49
2022-10-01T04:15:31.218Z,10.32
2022-10-01T04:55:31.205Z,10.73
2022-10-01T05:15:31.195Z,10.94
2022-10-01T05:35:31.201Z,11.21
2022-10-01T05:55:31.193Z,11.19
2022-10-01T06:15:31.196Z,11.22
2022-10-01T06:35:31.192Z,11.33
2022-10-01T06:55:31.185Z,11.39
2022-10-01T07:15:31.193Z,11.48
2022-10-01T07:35:31.183Z,11.63
2022-10-01T07:55:31.179Z,11.82
2022-10-01T08:15:31.199Z,11.97
2022-10-01T08:35:31.173Z,12.87
2022-10-01T08:55:31.167Z,13.25
2022-10-01T09:15:31.146Z,13.57
2022-10-01T09:35:31.144Z,13.91
2022-10-01T09:55:31.146Z,14.02
2022-10-01T10:15:31.140Z,14.21
2022-10-01T10:35:31.137Z,14.3
2022-10-01T10:55:31.281Z,14.69
2022-10-01T11:15:31.118Z,15.41
2022-10-01T11:35:31.109Z,15.76
2022-10-01T11:55:31.110Z,15.52
2022-10-01T12:35:31.085Z,15.07
2022-10-01T12:55:31.133Z,15.04
2022-10-01T13:15:31.082Z,13.97
2022-10-01T13:55:31.053Z,13.08
2022-10-01T14:15:31.074Z,13.74
2022-10-01T14:35:31.057Z,14.3
2022-10-01T14:55:31.035Z,14.71
2022-10-01T15:15:31.060Z,13.86
2022-10-01T15:35:31.027Z,13.9
2022-10-01T15:55:31.015Z,14.47
2022-10-01T16:15:31.024Z,14.85
2022-10-01T16:35:31.029Z,14.78
2022-10-01T16:55:31.011Z,14.72
2022-10-01T17:15:31.040Z,14.5
2022-10-01T17:35:31.093Z,14.1
2022-10-01T17:55:30.996Z,13.75
2022-10-01T18:35:30.973Z,13.47
2022-10-01T18:55:30.964Z,13.14
2022-10-01T19:15:30.952Z,12.97
2022-10-01T19:35:30.958Z,13.13
2022-10-01T20:15:30.951Z,13.26
2022-10-01T20:55:30.936Z,13.11
2022-10-01T21:35:30.917Z,13.19
2022-10-01T22:15:30.914Z,13
2022-10-01T22:35:30.929Z,13.01
2022-10-01T22:55:30.912Z,12.99
2022-10-01T23:35:30.896Z,13.01
2022-10-01T23:55:30.903Z,12.92
